sensor_id;sensor_type;location;lat;lon;timestamp;temperature;humidity
13482;DHT22;6813;60.352;15.746;2023-12-29T00:01:43;-2.70;99.90
13482;DHT22;6813;60.352;15.746;2023-12-29T00:04:09;-2.60;99.90
13482;DHT22;6813;60.352;15.746;2023-12-29T00:06:40;-2.60;99.90
13482;DHT22;6813;60.352;15.746;2023-12-29T00:09:06;-2.50;99.90
13482;DHT22;6813;60.352;15.746;2023-12-29T00:11:33;-2.60;99.90
13482;DHT22;6813;60.352;15.746;2023-12-29T00:13:58;-2.60;99.90
13482;DHT22;6813;60.352;15.746;2023-12-29T00:16:24;-2.60;99.90
13482;DHT22;6813;60.352;15.746;2023-12-29T00:18:50;-2.50;99.90
13482;DHT22;6813;60.352;15.746;2023-12-29T00:21:16;-2.60;99.90
13482;DHT22;6813;60.352;15.746;2023-12-29T00:23:41;-2.50;99.90
13482;DHT22;6813;60.352;15.746;2023-12-29T00:26:07;-2.40;99.90
13482;DHT22;6813;60.352;15.746;2023-12-29T00:28:33;-2.60;99.90
13482;DHT22;6813;60.352;15.746;2023-12-29T00:31:01;-2.60;99.90
13482;DHT22;6813;60.352;15.746;2023-12-29T00:33:26;-2.60;99.90
13482;DHT22;6813;60.352;15.746;2023-12-29T00:35:52;-2.50;99.90
13482;DHT22;6813;60.352;15.746;2023-12-29T00:38:18;-2.60;99.90
13482;DHT22;6813;60.352;15.746;2023-12-29T00:40:43;-2.50;99.90
13482;DHT22;6813;60.352;15.746;2023-12-29T00:43:09;-2.50;99.90
13482;DHT22;6813;60.352;15.746;2023-12-29T00:45:35;-2.60;99.90
13482;DHT22;6813;60.352;15.746;2023-12-29T00:48:02;-2.60;99.90
13482;DHT22;6813;60.352;15.746;2023-12-29T00:50:28;-2.60;99.90
13482;DHT22;6813;60.352;15.746;2023-12-29T00:52:55;-2.50;99.90
13482;DHT22;6813;60.352;15.746;2023-12-29T00:55:21;-2.30;99.90
13482;DHT22;6813;60.352;15.746;2023-12-29T00:57:46;-2.20;99.90
13482;DHT22;6813;60.352;15.746;2023-12-29T01:00:12;-2.10;99.90
13482;DHT22;6813;60.352;15.746;2023-12-29T01:02:39;-2.10;99.90
13482;DHT22;6813;60.352;15.746;2023-12-29T01:05:05;-2.00;99.90
13482;DHT22;6813;60.352;15.746;2023-12-29T01:07:31;-2.00;99.90
13482;DHT22;6813;60.352;15.746;2023-12-29T01:09:56;-1.90;99.90
13482;DHT22;6813;60.352;15.746;2023-12-29T01:12:22;-1.80;99.90
13482;DHT22;6813;60.352;15.746;2023-12-29T01:14:51;-1.70;99.90
13482;DHT22;6813;60.352;15.746;2023-12-29T01:17:17;-1.70;99.90
13482;DHT22;6813;60.352;15.746;2023-12-29T01:19:42;-1.60;99.90
13482;DHT22;6813;60.352;15.746;2023-12-29T01:22:08;-1.50;99.90
13482;DHT22;6813;60.352;15.746;2023-12-29T01:24:34;-1.50;99.90
13482;DHT22;6813;60.352;15.746;2023-12-29T01:26:59;-1.40;99.90
13482;DHT22;6813;60.352;15.746;2023-12-29T01:29:25;-1.40;99.90
13482;DHT22;6813;60.352;15.746;2023-12-29T01:31:50;-1.40;99.90
13482;DHT22;6813;60.352;15.746;2023-12-29T01:34:16;-1.50;99.90
13482;DHT22;6813;60.352;15.746;2023-12-29T01:36:42;-1.40;99.90
13482;DHT22;6813;60.352;15.746;2023-12-29T01:39:07;-1.50;99.90
13482;DHT22;6813;60.352;15.746;2023-12-29T01:41:33;-1.60;99.90
13482;DHT22;6813;60.352;15.746;2023-12-29T01:46:29;-1.80;99.90
13482;DHT22;6813;60.352;15.746;2023-12-29T01:48:55;-2.00;99.90
13482;DHT22;6813;60.352;15.746;2023-12-29T01:51:24;-2.00;99.90
13482;DHT22;6813;60.352;15.746;2023-12-29T01:53:52;-1.90;99.90
13482;DHT22;6813;60.352;15.746;2023-12-29T01:56:18;-1.80;99.90
13482;DHT22;6813;60.352;15.746;2023-12-29T01:58:45;-1.70;99.90
13482;DHT22;6813;60.352;15.746;2023-12-29T02:01:14;-1.70;99.90
13482;DHT22;6813;60.352;15.746;2023-12-29T02:03:40;-1.80;99.90
13482;DHT22;6813;60.352;15.746;2023-12-29T02:06:09;-1.70;99.90
13482;DHT22;6813;60.352;15.746;2023-12-29T02:08:36;-1.80;99.90
13482;DHT22;6813;60.352;15.746;2023-12-29T02:11:02;-1.80;99.90
13482;DHT22;6813;60.352;15.746;2023-12-29T02:13:28;-1.70;99.90
13482;DHT22;6813;60.352;15.746;2023-12-29T02:15:57;-1.70;99.90
13482;DHT22;6813;60.352;15.746;2023-12-29T02:18:26;-1.70;99.90
13482;DHT22;6813;60.352;15.746;2023-12-29T02:20:54;-1.70;99.90
13482;DHT22;6813;60.352;15.746;2023-12-29T02:23:20;-1.70;99.90
13482;DHT22;6813;60.352;15.746;2023-12-29T02:25:46;-1.70;99.90
13482;DHT22;6813;60.352;15.746;2023-12-29T02:28:25;-1.60;99.90
13482;DHT22;6813;60.352;15.746;2023-12-29T02:33:21;-1.70;99.90
13482;DHT22;6813;60.352;15.746;2023-12-29T02:35:50;-1.70;99.90
13482;DHT22;6813;60.352;15.746;2023-12-29T02:38:17;-1.70;99.90
13482;DHT22;6813;60.352;15.746;2023-12-29T02:40:43;-1.70;99.90
13482;DHT22;6813;60.352;15.746;2023-12-29T02:43:09;-1.60;99.90
13482;DHT22;6813;60.352;15.746;2023-12-29T02:45:35;-1.60;99.90
13482;DHT22;6813;60.352;15.746;2023-12-29T02:48:01;-1.60;99.90
13482;DHT22;6813;60.352;15.746;2023-12-29T02:50:26;-1.70;99.90
13482;DHT22;6813;60.352;15.746;2023-12-29T02:52:52;-1.60;99.90
13482;DHT22;6813;60.352;15.746;2023-12-29T02:55:18;-1.70;99.90
13482;DHT22;6813;60.352;15.746;2023-12-29T02:57:43;-1.70;99.90
13482;DHT22;6813;60.352;15.746;2023-12-29T03:00:09;-1.70;99.90
13482;DHT22;6813;60.352;15.746;2023-12-29T03:02:35;-1.60;99.90
13482;DHT22;6813;60.352;15.746;2023-12-29T03:05:01;-1.60;99.90
13482;DHT22;6813;60.352;15.746;2023-12-29T03:07:27;-1.60;99.90
13482;DHT22;6813;60.352;15.746;2023-12-29T03:09:53;-1.60;99.90
13482;DHT22;6813;60.352;15.746;2023-12-29T03:12:18;-1.50;99.90
13482;DHT22;6813;60.352;15.746;2023-12-29T03:14:45;-1.50;99.90
13482;DHT22;6813;60.352;15.746;2023-12-29T03:17:12;-1.50;99.90
13482;DHT22;6813;60.352;15.746;2023-12-29T03:19:38;-1.50;99.90
13482;DHT22;6813;60.352;15.746;2023-12-29T03:22:04;-1.40;99.90
13482;DHT22;6813;60.352;15.746;2023-12-29T03:24:30;-1.40;99.90
13482;DHT22;6813;60.352;15.746;2023-12-29T03:26:56;-1.40;99.90
13482;DHT22;6813;60.352;15.746;2023-12-29T03:29:22;-1.50;99.90
13482;DHT22;6813;60.352;15.746;2023-12-29T03:31:48;-1.60;99.90
13482;DHT22;6813;60.352;15.746;2023-12-29T03:34:13;-1.50;99.90
13482;DHT22;6813;60.352;15.746;2023-12-29T03:36:39;-1.60;99.90
13482;DHT22;6813;60.352;15.746;2023-12-29T03:39:05;-1.60;99.90
13482;DHT22;6813;60.352;15.746;2023-12-29T03:41:31;-1.60;99.90
13482;DHT22;6813;60.352;15.746;2023-12-29T03:43:57;-1.60;99.90
13482;DHT22;6813;60.352;15.746;2023-12-29T03:46:24;-1.60;99.90
13482;DHT22;6813;60.352;15.746;2023-12-29T03:48:51;-1.60;99.90
13482;DHT22;6813;60.352;15.746;2023-12-29T03:51:17;-1.70;99.90
13482;DHT22;6813;60.352;15.746;2023-12-29T03:53:43;-1.60;99.90
13482;DHT22;6813;60.352;15.746;2023-12-29T03:56:18;-1.60;99.90
13482;DHT22;6813;60.352;15.746;2023-12-29T03:58:47;-1.60;99.90
13482;DHT22;6813;60.352;15.746;2023-12-29T04:01:14;-1.60;99.90
13482;DHT22;6813;60.352;15.746;2023-12-29T04:03:40;-1.60;99.90
13482;DHT22;6813;60.352;15.746;2023-12-29T04:06:07;-1.60;99.90
13482;DHT22;6813;60.352;15.746;2023-12-29T04:08:34;-1.50;99.90
13482;DHT22;6813;60.352;15.746;2023-12-29T04:11:00;-1.50;99.90
13482;DHT22;6813;60.352;15.746;2023-12-29T04:13:26;-1.50;99.90
13482;DHT22;6813;60.352;15.746;2023-12-29T04:15:52;-1.60;99.90
13482;DHT22;6813;60.352;15.746;2023-12-29T04:18:20;-1.60;99.90
13482;DHT22;6813;60.352;15.746;2023-12-29T04:20:46;-1.60;99.90
13482;DHT22;6813;60.352;15.746;2023-12-29T04:23:12;-1.50;99.90
13482;DHT22;6813;60.352;15.746;2023-12-29T04:25:38;-1.50;99.90
13482;DHT22;6813;60.352;15.746;2023-12-29T04:28:04;-1.50;99.90
13482;DHT22;6813;60.352;15.746;2023-12-29T04:30:29;-1.50;99.90
13482;DHT22;6813;60.352;15.746;2023-12-29T04:32:55;-1.40;99.90
13482;DHT22;6813;60.352;15.746;2023-12-29T04:35:21;-1.40;99.90
13482;DHT22;6813;60.352;15.746;2023-12-29T04:37:47;-1.40;99.90
13482;DHT22;6813;60.352;15.746;2023-12-29T04:40:13;-1.30;99.90
13482;DHT22;6813;60.352;15.746;2023-12-29T04:42:38;-1.30;99.90
13482;DHT22;6813;60.352;15.746;2023-12-29T04:45:05;-1.30;99.90
13482;DHT22;6813;60.352;15.746;2023-12-29T04:47:31;-1.30;99.90
13482;DHT22;6813;60.352;15.746;2023-12-29T04:49:56;-1.30;99.90
13482;DHT22;6813;60.352;15.746;2023-12-29T04:52:22;-1.30;99.90
13482;DHT22;6813;60.352;15.746;2023-12-29T04:54:48;-1.30;99.90
13482;DHT22;6813;60.352;15.746;2023-12-29T04:57:14;-1.20;99.90
13482;DHT22;6813;60.352;15.746;2023-12-29T04:59:40;-1.20;99.90
13482;DHT22;6813;60.352;15.746;2023-12-29T05:02:05;-1.20;99.90
13482;DHT22;6813;60.352;15.746;2023-12-29T05:04:31;-1.20;99.90
13482;DHT22;6813;60.352;15.746;2023-12-29T05:06:57;-1.20;99.90
13482;DHT22;6813;60.352;15.746;2023-12-29T05:09:22;-1.20;99.90
13482;DHT22;6813;60.352;15.746;2023-12-29T05:11:48;-1.10;99.90
13482;DHT22;6813;60.352;15.746;2023-12-29T05:14:14;-1.10;99.90
13482;DHT22;6813;60.352;15.746;2023-12-29T05:16:43;-1.10;99.90
13482;DHT22;6813;60.352;15.746;2023-12-29T05:19:09;-1.10;99.90
13482;DHT22;6813;60.352;15.746;2023-12-29T05:21:35;-1.20;99.90
13482;DHT22;6813;60.352;15.746;2023-12-29T05:24:00;-1.20;99.90
13482;DHT22;6813;60.352;15.746;2023-12-29T05:26:27;-1.20;99.90
13482;DHT22;6813;60.352;15.746;2023-12-29T05:28:53;-1.20;99.90
13482;DHT22;6813;60.352;15.746;2023-12-29T05:31:19;-1.20;99.90
13482;DHT22;6813;60.352;15.746;2023-12-29T05:33:44;-1.30;99.90
13482;DHT22;6813;60.352;15.746;2023-12-29T05:36:10;-1.20;99.90
13482;DHT22;6813;60.352;15.746;2023-12-29T05:38:37;-1.30;99.90
13482;DHT22;6813;60.352;15.746;2023-12-29T05:41:03;-1.30;99.90
13482;DHT22;6813;60.352;15.746;2023-12-29T05:43:33;-1.30;99.90
13482;DHT22;6813;60.352;15.746;2023-12-29T05:46:00;-1.30;99.90
13482;DHT22;6813;60.352;15.746;2023-12-29T05:48:26;-1.30;99.90
13482;DHT22;6813;60.352;15.746;2023-12-29T05:50:52;-1.30;99.90
13482;DHT22;6813;60.352;15.746;2023-12-29T05:53:18;-1.30;99.90
13482;DHT22;6813;60.352;15.746;2023-12-29T05:55:44;-1.20;99.90
13482;DHT22;6813;60.352;15.746;2023-12-29T05:58:10;-1.20;99.90
13482;DHT22;6813;60.352;15.746;2023-12-29T06:00:36;-1.20;99.90
13482;DHT22;6813;60.352;15.746;2023-12-29T06:03:02;-1.20;99.90
13482;DHT22;6813;60.352;15.746;2023-12-29T06:05:30;-1.20;99.90
13482;DHT22;6813;60.352;15.746;2023-12-29T06:07:56;-1.30;99.90
13482;DHT22;6813;60.352;15.746;2023-12-29T06:10:21;-1.30;99.90
13482;DHT22;6813;60.352;15.746;2023-12-29T06:12:47;-1.30;99.90
13482;DHT22;6813;60.352;15.746;2023-12-29T06:15:13;-1.30;99.90
13482;DHT22;6813;60.352;15.746;2023-12-29T06:17:42;-1.30;99.90
13482;DHT22;6813;60.352;15.746;2023-12-29T06:20:09;-1.40;99.90
13482;DHT22;6813;60.352;15.746;2023-12-29T06:22:39;-1.30;99.90
13482;DHT22;6813;60.352;15.746;2023-12-29T06:25:09;-1.40;99.90
13482;DHT22;6813;60.352;15.746;2023-12-29T06:27:35;-1.40;99.90
13482;DHT22;6813;60.352;15.746;2023-12-29T06:30:07;-1.40;99.90
13482;DHT22;6813;60.352;15.746;2023-12-29T06:32:32;-1.40;99.90
13482;DHT22;6813;60.352;15.746;2023-12-29T06:34:58;-1.40;99.90
13482;DHT22;6813;60.352;15.746;2023-12-29T06:37:24;-1.40;99.90
13482;DHT22;6813;60.352;15.746;2023-12-29T06:39:50;-1.40;99.90
13482;DHT22;6813;60.352;15.746;2023-12-29T06:42:15;-1.40;99.90
13482;DHT22;6813;60.352;15.746;2023-12-29T06:44:41;-1.40;99.90
13482;DHT22;6813;60.352;15.746;2023-12-29T06:47:07;-1.40;99.90
13482;DHT22;6813;60.352;15.746;2023-12-29T06:49:34;-1.40;99.90
13482;DHT22;6813;60.352;15.746;2023-12-29T06:52:00;-1.40;99.90
13482;DHT22;6813;60.352;15.746;2023-12-29T06:54:26;-1.40;99.90
13482;DHT22;6813;60.352;15.746;2023-12-29T06:56:52;-1.40;99.90
13482;DHT22;6813;60.352;15.746;2023-12-29T06:59:18;-1.40;99.90
13482;DHT22;6813;60.352;15.746;2023-12-29T07:01:45;-1.30;99.90
13482;DHT22;6813;60.352;15.746;2023-12-29T07:04:11;-1.40;99.90
13482;DHT22;6813;60.352;15.746;2023-12-29T07:06:37;-1.40;99.90
13482;DHT22;6813;60.352;15.746;2023-12-29T07:09:03;-1.40;99.90
13482;DHT22;6813;60.352;15.746;2023-12-29T07:11:29;-1.40;99.90
13482;DHT22;6813;60.352;15.746;2023-12-29T07:13:55;-1.40;99.90
13482;DHT22;6813;60.352;15.746;2023-12-29T07:16:21;-1.40;99.90
13482;DHT22;6813;60.352;15.746;2023-12-29T07:18:46;-1.40;99.90
13482;DHT22;6813;60.352;15.746;2023-12-29T07:21:13;-1.40;99.90
13482;DHT22;6813;60.352;15.746;2023-12-29T07:23:40;-1.40;99.90
13482;DHT22;6813;60.352;15.746;2023-12-29T07:26:06;-1.40;99.90
13482;DHT22;6813;60.352;15.746;2023-12-29T07:28:32;-1.40;99.90
13482;DHT22;6813;60.352;15.746;2023-12-29T07:30:57;-1.40;99.90
13482;DHT22;6813;60.352;15.746;2023-12-29T07:33:23;-1.40;99.90
13482;DHT22;6813;60.352;15.746;2023-12-29T07:35:51;-1.40;99.90
13482;DHT22;6813;60.352;15.746;2023-12-29T07:38:17;-1.40;99.90
13482;DHT22;6813;60.352;15.746;2023-12-29T07:40:43;-1.40;99.90
13482;DHT22;6813;60.352;15.746;2023-12-29T07:43:09;-1.40;99.90
13482;DHT22;6813;60.352;15.746;2023-12-29T07:45:35;-1.30;99.90
13482;DHT22;6813;60.352;15.746;2023-12-29T07:48:03;-1.30;99.90
13482;DHT22;6813;60.352;15.746;2023-12-29T07:50:29;-1.40;99.90
13482;DHT22;6813;60.352;15.746;2023-12-29T07:52:55;-1.40;99.90
13482;DHT22;6813;60.352;15.746;2023-12-29T07:55:21;-1.30;99.90
13482;DHT22;6813;60.352;15.746;2023-12-29T07:57:46;-1.30;99.90
13482;DHT22;6813;60.352;15.746;2023-12-29T08:00:16;-1.40;99.90
13482;DHT22;6813;60.352;15.746;2023-12-29T08:02:41;-1.40;99.90
13482;DHT22;6813;60.352;15.746;2023-12-29T08:05:07;-1.30;99.90
13482;DHT22;6813;60.352;15.746;2023-12-29T08:07:36;-1.30;99.90
13482;DHT22;6813;60.352;15.746;2023-12-29T08:10:04;-1.30;99.90
13482;DHT22;6813;60.352;15.746;2023-12-29T08:12:30;-1.40;99.90
13482;DHT22;6813;60.352;15.746;2023-12-29T08:14:56;-1.30;99.90
13482;DHT22;6813;60.352;15.746;2023-12-29T08:17:22;-1.40;99.90
13482;DHT22;6813;60.352;15.746;2023-12-29T08:19:49;-1.40;99.90
13482;DHT22;6813;60.352;15.746;2023-12-29T08:22:15;-1.40;99.90
13482;DHT22;6813;60.352;15.746;2023-12-29T08:24:42;-1.40;99.90
13482;DHT22;6813;60.352;15.746;2023-12-29T08:27:09;-1.30;99.90
13482;DHT22;6813;60.352;15.746;2023-12-29T08:29:36;-1.30;99.90
13482;DHT22;6813;60.352;15.746;2023-12-29T08:32:02;-1.30;99.90
13482;DHT22;6813;60.352;15.746;2023-12-29T08:34:28;-1.20;99.90
13482;DHT22;6813;60.352;15.746;2023-12-29T08:36:53;-1.30;99.90
13482;DHT22;6813;60.352;15.746;2023-12-29T08:39:19;-1.20;99.90
13482;DHT22;6813;60.352;15.746;2023-12-29T08:41:46;-1.20;99.90
13482;DHT22;6813;60.352;15.746;2023-12-29T08:44:12;-1.10;99.90
13482;DHT22;6813;60.352;15.746;2023-12-29T08:46:37;-1.10;99.90
13482;DHT22;6813;60.352;15.746;2023-12-29T08:49:03;-1.10;99.90
13482;DHT22;6813;60.352;15.746;2023-12-29T08:51:29;-1.00;99.90
13482;DHT22;6813;60.352;15.746;2023-12-29T08:53:55;-0.90;99.90
13482;DHT22;6813;60.352;15.746;2023-12-29T08:56:21;-0.90;99.90
13482;DHT22;6813;60.352;15.746;2023-12-29T08:58:46;-0.80;99.90
13482;DHT22;6813;60.352;15.746;2023-12-29T09:01:12;-0.80;99.90
13482;DHT22;6813;60.352;15.746;2023-12-29T09:03:38;-0.80;99.90
13482;DHT22;6813;60.352;15.746;2023-12-29T09:06:04;-0.70;99.90
13482;DHT22;6813;60.352;15.746;2023-12-29T09:08:30;-0.70;99.90
13482;DHT22;6813;60.352;15.746;2023-12-29T09:10:56;-0.70;99.90
13482;DHT22;6813;60.352;15.746;2023-12-29T09:13:22;-0.60;99.90
13482;DHT22;6813;60.352;15.746;2023-12-29T09:15:50;-0.60;99.90
13482;DHT22;6813;60.352;15.746;2023-12-29T09:18:16;-0.60;99.90
13482;DHT22;6813;60.352;15.746;2023-12-29T09:20:42;-0.60;99.90
13482;DHT22;6813;60.352;15.746;2023-12-29T09:23:08;-0.50;99.90
13482;DHT22;6813;60.352;15.746;2023-12-29T09:25:33;-0.50;99.90
13482;DHT22;6813;60.352;15.746;2023-12-29T09:27:59;-0.50;99.90
13482;DHT22;6813;60.352;15.746;2023-12-29T09:30:24;-0.50;99.90
13482;DHT22;6813;60.352;15.746;2023-12-29T09:32:50;-0.50;99.90
13482;DHT22;6813;60.352;15.746;2023-12-29T09:35:16;-0.50;99.90
13482;DHT22;6813;60.352;15.746;2023-12-29T09:37:42;-0.40;99.90
13482;DHT22;6813;60.352;15.746;2023-12-29T09:40:10;-0.40;99.90
13482;DHT22;6813;60.352;15.746;2023-12-29T09:42:38;-0.50;99.90
13482;DHT22;6813;60.352;15.746;2023-12-29T09:45:10;-0.40;99.90
13482;DHT22;6813;60.352;15.746;2023-12-29T09:47:39;-0.40;99.90
13482;DHT22;6813;60.352;15.746;2023-12-29T09:50:14;-0.40;99.90
13482;DHT22;6813;60.352;15.746;2023-12-29T09:52:41;-0.40;99.90
13482;DHT22;6813;60.352;15.746;2023-12-29T09:55:09;-0.40;99.90
13482;DHT22;6813;60.352;15.746;2023-12-29T09:57:37;-0.40;99.90
13482;DHT22;6813;60.352;15.746;2023-12-29T10:00:04;-0.40;99.90
13482;DHT22;6813;60.352;15.746;2023-12-29T10:02:30;-0.30;99.90
13482;DHT22;6813;60.352;15.746;2023-12-29T10:04:56;-0.30;99.90
13482;DHT22;6813;60.352;15.746;2023-12-29T10:07:26;-0.30;99.90
13482;DHT22;6813;60.352;15.746;2023-12-29T10:09:56;-0.30;99.90
13482;DHT22;6813;60.352;15.746;2023-12-29T10:12:27;-0.30;99.90
13482;DHT22;6813;60.352;15.746;2023-12-29T10:15:06;-0.30;99.90
13482;DHT22;6813;60.352;15.746;2023-12-29T10:18:00;-0.30;99.90
13482;DHT22;6813;60.352;15.746;2023-12-29T10:23:32;0.40;99.90
13482;DHT22;6813;60.352;15.746;2023-12-29T10:25:58;0.50;99.90
13482;DHT22;6813;60.352;15.746;2023-12-29T10:28:24;0.40;99.90
13482;DHT22;6813;60.352;15.746;2023-12-29T10:30:50;0.40;99.90
13482;DHT22;6813;60.352;15.746;2023-12-29T10:33:21;0.30;99.90
13482;DHT22;6813;60.352;15.746;2023-12-29T10:35:58;0.30;99.90
13482;DHT22;6813;60.352;15.746;2023-12-29T10:38:29;0.30;99.90
13482;DHT22;6813;60.352;15.746;2023-12-29T10:41:02;0.30;99.90
13482;DHT22;6813;60.352;15.746;2023-12-29T10:43:35;0.20;99.90
13482;DHT22;6813;60.352;15.746;2023-12-29T10:46:09;0.20;99.90
13482;DHT22;6813;60.352;15.746;2023-12-29T10:48:37;0.20;99.90
13482;DHT22;6813;60.352;15.746;2023-12-29T10:51:03;0.20;99.90
13482;DHT22;6813;60.352;15.746;2023-12-29T10:53:33;0.30;99.90
13482;DHT22;6813;60.352;15.746;2023-12-29T10:55:59;0.20;99.90
13482;DHT22;6813;60.352;15.746;2023-12-29T10:58:29;0.10;99.90
13482;DHT22;6813;60.352;15.746;2023-12-29T11:00:58;0.10;99.90
13482;DHT22;6813;60.352;15.746;2023-12-29T11:03:25;0.20;99.90
13482;DHT22;6813;60.352;15.746;2023-12-29T11:06:01;0.20;99.90
13482;DHT22;6813;60.352;15.746;2023-12-29T11:08:26;0.20;99.90
13482;DHT22;6813;60.352;15.746;2023-12-29T11:10:54;0.20;99.90
13482;DHT22;6813;60.352;15.746;2023-12-29T11:13:21;0.30;99.90
13482;DHT22;6813;60.352;15.746;2023-12-29T11:15:47;0.30;99.90
13482;DHT22;6813;60.352;15.746;2023-12-29T11:18:16;0.30;99.90
13482;DHT22;6813;60.352;15.746;2023-12-29T11:20:44;0.30;99.90
13482;DHT22;6813;60.352;15.746;2023-12-29T11:23:11;0.40;99.90
13482;DHT22;6813;60.352;15.746;2023-12-29T11:25:39;0.40;99.90
13482;DHT22;6813;60.352;15.746;2023-12-29T11:28:08;0.40;99.90
13482;DHT22;6813;60.352;15.746;2023-12-29T11:30:35;0.40;99.90
13482;DHT22;6813;60.352;15.746;2023-12-29T11:36:00;0.50;99.90
13482;DHT22;6813;60.352;15.746;2023-12-29T11:44:00;0.60;99.90
13482;DHT22;6813;60.352;15.746;2023-12-29T11:46:40;0.60;99.90
13482;DHT22;6813;60.352;15.746;2023-12-29T11:49:09;0.50;99.90
13482;DHT22;6813;60.352;15.746;2023-12-29T11:51:42;0.50;99.90
13482;DHT22;6813;60.352;15.746;2023-12-29T11:54:22;0.60;99.90
13482;DHT22;6813;60.352;15.746;2023-12-29T11:56:48;0.60;99.90
13482;DHT22;6813;60.352;15.746;2023-12-29T12:01:43;0.50;99.90
13482;DHT22;6813;60.352;15.746;2023-12-29T12:04:45;0.50;99.90
13482;DHT22;6813;60.352;15.746;2023-12-29T12:09:50;0.40;99.90
13482;DHT22;6813;60.352;15.746;2023-12-29T12:12:42;0.40;99.90
13482;DHT22;6813;60.352;15.746;2023-12-29T12:17:52;0.40;99.90
13482;DHT22;6813;60.352;15.746;2023-12-29T12:20:18;0.40;99.90
13482;DHT22;6813;60.352;15.746;2023-12-29T12:22:44;0.30;99.90
13482;DHT22;6813;60.352;15.746;2023-12-29T12:25:13;0.30;99.90
13482;DHT22;6813;60.352;15.746;2023-12-29T12:27:39;0.30;99.90
13482;DHT22;6813;60.352;15.746;2023-12-29T12:30:05;0.30;99.90
13482;DHT22;6813;60.352;15.746;2023-12-29T12:32:32;0.20;99.90
13482;DHT22;6813;60.352;15.746;2023-12-29T12:34:57;0.10;99.90
13482;DHT22;6813;60.352;15.746;2023-12-29T12:37:28;0.00;99.90
13482;DHT22;6813;60.352;15.746;2023-12-29T12:39:54;0.00;99.90
13482;DHT22;6813;60.352;15.746;2023-12-29T12:42:20;0.00;99.90
13482;DHT22;6813;60.352;15.746;2023-12-29T12:45:10;0.00;99.90
13482;DHT22;6813;60.352;15.746;2023-12-29T12:47:44;0.10;99.90
13482;DHT22;6813;60.352;15.746;2023-12-29T12:50:12;0.10;99.90
13482;DHT22;6813;60.352;15.746;2023-12-29T12:52:39;0.20;99.90
13482;DHT22;6813;60.352;15.746;2023-12-29T12:55:06;0.20;99.90
13482;DHT22;6813;60.352;15.746;2023-12-29T12:57:33;0.10;99.90
13482;DHT22;6813;60.352;15.746;2023-12-29T13:00:00;0.10;99.90
13482;DHT22;6813;60.352;15.746;2023-12-29T13:02:27;0.10;99.90
13482;DHT22;6813;60.352;15.746;2023-12-29T13:04:54;0.10;99.90
13482;DHT22;6813;60.352;15.746;2023-12-29T13:07:20;0.10;99.90
13482;DHT22;6813;60.352;15.746;2023-12-29T13:09:47;0.10;99.90
13482;DHT22;6813;60.352;15.746;2023-12-29T13:12:16;0.10;99.90
13482;DHT22;6813;60.352;15.746;2023-12-29T13:14:44;0.10;99.90
13482;DHT22;6813;60.352;15.746;2023-12-29T13:17:13;0.00;99.90
13482;DHT22;6813;60.352;15.746;2023-12-29T13:19:40;0.00;99.90
13482;DHT22;6813;60.352;15.746;2023-12-29T13:22:12;0.00;99.90
13482;DHT22;6813;60.352;15.746;2023-12-29T13:24:46;-0.10;99.90
13482;DHT22;6813;60.352;15.746;2023-12-29T13:27:14;-0.10;99.90
13482;DHT22;6813;60.352;15.746;2023-12-29T13:29:41;-0.10;99.90
13482;DHT22;6813;60.352;15.746;2023-12-29T13:32:20;-0.10;99.90
13482;DHT22;6813;60.352;15.746;2023-12-29T13:40:47;-0.10;99.90
13482;DHT22;6813;60.352;15.746;2023-12-29T13:43:19;-0.10;99.90
13482;DHT22;6813;60.352;15.746;2023-12-29T13:45:46;-0.10;99.90
13482;DHT22;6813;60.352;15.746;2023-12-29T13:48:12;0.90;99.90
13482;DHT22;6813;60.352;15.746;2023-12-29T13:50:38;1.80;99.90
13482;DHT22;6813;60.352;15.746;2023-12-29T13:53:06;2.00;99.90
13482;DHT22;6813;60.352;15.746;2023-12-29T13:55:31;2.00;99.90
13482;DHT22;6813;60.352;15.746;2023-12-29T13:57:57;1.90;99.90
13482;DHT22;6813;60.352;15.746;2023-12-29T14:00:26;1.80;99.90
13482;DHT22;6813;60.352;15.746;2023-12-29T14:05:27;1.50;99.90
13482;DHT22;6813;60.352;15.746;2023-12-29T14:10:30;1.20;99.90
13482;DHT22;6813;60.352;15.746;2023-12-29T14:13:06;1.00;99.90
13482;DHT22;6813;60.352;15.746;2023-12-29T14:15:39;0.90;99.90
13482;DHT22;6813;60.352;15.746;2023-12-29T14:20:59;0.90;99.90
13482;DHT22;6813;60.352;15.746;2023-12-29T14:23:25;0.80;99.90
13482;DHT22;6813;60.352;15.746;2023-12-29T14:25:51;0.80;99.90
13482;DHT22;6813;60.352;15.746;2023-12-29T14:28:18;0.70;99.90
13482;DHT22;6813;60.352;15.746;2023-12-29T14:30:45;0.80;99.90
13482;DHT22;6813;60.352;15.746;2023-12-29T14:33:11;0.90;99.90
13482;DHT22;6813;60.352;15.746;2023-12-29T14:35:37;0.80;99.90
13482;DHT22;6813;60.352;15.746;2023-12-29T14:38:03;0.90;99.90
13482;DHT22;6813;60.352;15.746;2023-12-29T14:40:30;0.80;99.90
13482;DHT22;6813;60.352;15.746;2023-12-29T14:42:56;0.80;99.90
13482;DHT22;6813;60.352;15.746;2023-12-29T14:45:21;0.70;99.90
13482;DHT22;6813;60.352;15.746;2023-12-29T14:47:47;0.70;99.90
13482;DHT22;6813;60.352;15.746;2023-12-29T14:50:15;0.70;99.90
13482;DHT22;6813;60.352;15.746;2023-12-29T14:52:41;0.60;99.90
13482;DHT22;6813;60.352;15.746;2023-12-29T14:55:07;0.60;99.90
13482;DHT22;6813;60.352;15.746;2023-12-29T14:57:32;0.60;99.90
13482;DHT22;6813;60.352;15.746;2023-12-29T14:59:58;0.60;99.90
13482;DHT22;6813;60.352;15.746;2023-12-29T15:02:24;0.70;99.90
13482;DHT22;6813;60.352;15.746;2023-12-29T15:04:49;0.70;99.90
13482;DHT22;6813;60.352;15.746;2023-12-29T15:07:16;0.70;99.90
13482;DHT22;6813;60.352;15.746;2023-12-29T15:09:42;0.70;99.90
13482;DHT22;6813;60.352;15.746;2023-12-29T15:12:08;0.70;99.90
13482;DHT22;6813;60.352;15.746;2023-12-29T15:14:34;0.70;99.90
13482;DHT22;6813;60.352;15.746;2023-12-29T15:16:59;0.70;99.90
13482;DHT22;6813;60.352;15.746;2023-12-29T15:19:25;0.60;99.90
13482;DHT22;6813;60.352;15.746;2023-12-29T15:21:51;0.50;99.90
13482;DHT22;6813;60.352;15.746;2023-12-29T15:24:22;0.50;99.90
13482;DHT22;6813;60.352;15.746;2023-12-29T15:26:48;0.40;99.90
13482;DHT22;6813;60.352;15.746;2023-12-29T15:29:14;0.40;99.90
13482;DHT22;6813;60.352;15.746;2023-12-29T15:31:45;0.40;99.90
13482;DHT22;6813;60.352;15.746;2023-12-29T15:34:12;0.30;99.90
13482;DHT22;6813;60.352;15.746;2023-12-29T15:36:38;0.40;99.90
13482;DHT22;6813;60.352;15.746;2023-12-29T15:39:04;0.40;99.90
13482;DHT22;6813;60.352;15.746;2023-12-29T15:41:33;0.40;99.90
13482;DHT22;6813;60.352;15.746;2023-12-29T15:43:59;0.40;99.90
13482;DHT22;6813;60.352;15.746;2023-12-29T15:46:25;0.50;99.90
13482;DHT22;6813;60.352;15.746;2023-12-29T15:48:51;0.50;99.90
13482;DHT22;6813;60.352;15.746;2023-12-29T15:51:17;0.50;99.90
13482;DHT22;6813;60.352;15.746;2023-12-29T15:53:42;0.50;99.90
13482;DHT22;6813;60.352;15.746;2023-12-29T15:56:18;0.50;99.90
13482;DHT22;6813;60.352;15.746;2023-12-29T15:58:45;0.50;99.90
13482;DHT22;6813;60.352;15.746;2023-12-29T16:01:19;0.50;99.90
13482;DHT22;6813;60.352;15.746;2023-12-29T16:03:44;0.50;99.90
13482;DHT22;6813;60.352;15.746;2023-12-29T16:06:27;0.50;99.90
13482;DHT22;6813;60.352;15.746;2023-12-29T16:08:53;0.60;99.90
13482;DHT22;6813;60.352;15.746;2023-12-29T16:11:23;0.60;99.90
13482;DHT22;6813;60.352;15.746;2023-12-29T16:13:50;0.60;99.90